Time;durP1;ratioP1;P1;durP2;ratioP2;P2;SDS_P1;SDS_P2;PMS_P1;PMS_P2;Temp;Humidity;BMP_temperature;BMP_pressure;BME280_temperature;BME280_humidity;BME280_pressure;Samples;Min_cycle;Max_cycle;Signal;HPM_P1;HPM_P2
2022/10/01 00:02:03;;;;;;;17.50;12.32;;;;;;;8.68;100.00;99924.63;5079485;28;20201;-74
2022/10/01 00:04:30;;;;;;;15.60;12.23;;;;;;;8.61;100.00;99923.16;5079138;28;20333;-73
2022/10/01 00:07:03;;;;;;;12.90;11.60;;;;;;;8.44;100.00;99916.75;5099636;28;20299;-73
2022/10/01 00:09:30;;;;;;;16.08;12.88;;;;;;;8.32;100.00;99919.91;5096892;28;20229;-76
2022/10/01 00:11:59;;;;;;;14.43;12.30;;;;;;;8.30;100.00;99925.38;5102017;28;20570;-72
2022/10/01 00:14:26;;;;;;;17.95;11.25;;;;;;;8.16;100.00;99919.72;5080428;28;20224;-74
2022/10/01 00:16:52;;;;;;;18.70;11.82;;;;;;;8.18;100.00;99920.53;5096897;28;20207;-76
2022/10/01 00:19:20;;;;;;;16.67;11.95;;;;;;;8.27;100.00;99916.56;5090977;28;20642;-73
2022/10/01 00:21:47;;;;;;;13.93;11.77;;;;;;;8.36;100.00;99906.28;5098744;28;20339;-73
2022/10/01 00:24:15;;;;;;;15.57;12.18;;;;;;;8.39;100.00;99902.63;5099009;28;20720;-74
2022/10/01 00:26:44;;;;;;;18.45;13.88;;;;;;;8.37;100.00;99901.81;5077375;28;20204;-74
2022/10/01 00:29:13;;;;;;;16.83;13.27;;;;;;;8.34;100.00;99889.41;5095282;28;20615;-75
2022/10/01 00:31:40;;;;;;;15.65;12.80;;;;;;;8.41;100.00;99895.44;5097647;28;20203;-74
2022/10/01 00:34:07;;;;;;;16.55;13.35;;;;;;;8.40;100.00;99890.97;5099646;28;20216;-74
2022/10/01 00:36:35;;;;;;;16.20;13.38;;;;;;;8.44;100.00;99889.03;5098933;28;20196;-73
2022/10/01 00:39:01;;;;;;;17.15;14.15;;;;;;;8.45;100.00;99874.66;5098045;28;20714;-73
2022/10/01 00:41:31;;;;;;;25.67;13.77;;;;;;;8.50;100.00;99875.31;5097488;28;20212;-73
2022/10/01 00:44:00;;;;;;;16.17;13.93;;;;;;;8.59;100.00;99874.03;5089383;28;20228;-74
2022/10/01 00:46:32;;;;;;;16.98;14.05;;;;;;;8.67;100.00;99864.69;5095637;28;20670;-73
2022/10/01 00:49:02;;;;;;;22.08;14.10;;;;;;;8.65;100.00;99866.59;5098949;28;20570;-74
2022/10/01 00:51:33;;;;;;;16.70;14.32;;;;;;;8.67;100.00;99871.88;5086914;28;20317;-74
2022/10/01 00:54:05;;;;;;;16.25;14.25;;;;;;;8.69;100.00;99865.50;5087746;28;20212;-75
2022/10/01 00:56:34;;;;;;;17.38;14.68;;;;;;;8.74;100.00;99860.78;5099990;28;20212;-75
2022/10/01 00:59:01;;;;;;;18.95;15.43;;;;;;;8.80;100.00;99861.47;5100000;28;20199;-74
2022/10/01 01:01:28;;;;;;;18.20;14.40;;;;;;;9.00;100.00;99876.63;5100364;28;20205;-75
2022/10/01 01:03:55;;;;;;;19.73;15.35;;;;;;;9.04;100.00;99873.72;5097749;28;20228;-74
2022/10/01 01:06:22;;;;;;;17.58;14.38;;;;;;;9.20;100.00;99873.84;5099056;28;20196;-75
2022/10/01 01:08:54;;;;;;;18.60;15.25;;;;;;;9.32;100.00;99867.03;5100114;28;20670;-75
2022/10/01 01:11:30;;;;;;;21.58;14.20;;;;;;;9.45;100.00;99860.13;5092946;28;20237;-73
2022/10/01 01:14:09;;;;;;;18.10;14.13;;;;;;;9.52;100.00;99869.63;5092038;28;20222;-74
2022/10/01 01:16:40;;;;;;;18.05;13.63;;;;;;;9.59;100.00;99873.75;5095030;28;20195;-73
2022/10/01 01:19:14;;;;;;;16.30;13.13;;;;;;;9.63;100.00;99865.50;5093736;28;20197;-72
2022/10/01 01:21:44;;;;;;;16.85;13.82;;;;;;;9.67;100.00;99861.72;5097095;28;20201;-73
2022/10/01 01:24:44;;;;;;;15.65;13.68;;;;;;;9.70;100.00;99867.84;5100583;28;20681;-74
2022/10/01 01:27:25;;;;;;;16.95;13.25;;;;;;;9.79;100.00;99856.59;5088023;28;20202;-73
2022/10/01 01:30:00;;;;;;;16.55;12.85;;;;;;;9.80;100.00;99852.94;5093011;28;20196;-73
2022/10/01 01:32:31;;;;;;;16.55;13.18;;;;;;;9.74;100.00;99847.88;5089264;28;20201;-73
2022/10/01 01:35:01;;;;;;;20.40;15.90;;;;;;;9.82;100.00;99853.75;5093115;28;20205;-73
2022/10/01 01:37:34;;;;;;;16.58;14.80;;;;;;;9.82;100.00;99845.69;5096193;28;20613;-73
2022/10/01 01:40:03;;;;;;;17.35;14.50;;;;;;;9.78;100.00;99837.84;5092133;28;20189;-74
2022/10/01 01:42:35;;;;;;;18.80;15.30;;;;;;;9.76;100.00;99845.13;5101156;28;20884;-74
2022/10/01 01:45:12;;;;;;;18.83;15.10;;;;;;;9.77;100.00;99839.69;5100009;28;20192;-73
2022/10/01 01:47:41;;;;;;;19.05;14.80;;;;;;;9.82;100.00;99836.75;5095756;28;20202;-73
2022/10/01 01:50:10;;;;;;;18.20;15.20;;;;;;;9.85;100.00;99833.03;5094677;28;20205;-75
2022/10/01 01:52:37;;;;;;;22.05;14.73;;;;;;;9.83;100.00;99822.34;5096771;28;20205;-73
2022/10/01 01:55:06;;;;;;;20.02;14.73;;;;;;;9.83;100.00;99814.28;5089275;28;20198;-73
2022/10/01 01:57:34;;;;;;;18.10;15.85;;;;;;;9.90;100.00;99825.59;5099035;28;20205;-74
2022/10/01 02:00:01;;;;;;;16.40;14.07;;;;;;;9.94;100.00;99819.97;5097415;28;20201;-74
2022/10/01 02:02:32;;;;;;;18.95;14.70;;;;;;;9.94;100.00;99821.78;5089416;28;20253;-74
2022/10/01 02:05:02;;;;;;;20.83;14.70;;;;;;;9.93;100.00;99809.31;5098779;28;20191;-73
2022/10/01 02:07:44;;;;;;;15.80;14.10;;;;;;;9.99;100.00;99814.34;5092238;28;20196;-73
2022/10/01 02:10:21;;;;;;;17.27;13.70;;;;;;;10.01;100.00;99813.31;5090337;28;20224;-75
2022/10/01 02:13:03;;;;;;;18.83;14.25;;;;;;;10.07;100.00;99806.75;5090004;28;20291;-73
2022/10/01 02:15:40;;;;;;;14.77;12.50;;;;;;;10.06;100.00;99805.00;5097621;28;20193;-73
2022/10/01 02:18:16;;;;;;;15.55;13.35;;;;;;;10.08;100.00;99813.00;5098856;28;20185;-74
2022/10/01 02:20:49;;;;;;;16.05;13.05;;;;;;;10.11;100.00;99807.47;5098878;28;20523;-73
2022/10/01 02:23:18;;;;;;;15.20;13.13;;;;;;;10.13;100.00;99806.44;5097617;28;20228;-74
2022/10/01 02:25:49;;;;;;;15.15;12.52;;;;;;;10.15;100.00;99804.53;5090440;28;20210;-73
2022/10/01 02:28:20;;;;;;;14.98;12.38;;;;;;;10.18;100.00;99800.81;5078079;28;20710;-73
2022/10/01 02:30:49;;;;;;;15.45;13.23;;;;;;;10.15;100.00;99809.91;5090933;28;20275;-72
2022/10/01 02:33:21;;;;;;;14.52;10.93;;;;;;;10.18;100.00;99804.38;5098168;28;20241;-76
2022/10/01 02:35:51;;;;;;;14.90;12.18;;;;;;;10.18;100.00;99796.28;5099278;28;20396;-74
2022/10/01 02:38:20;;;;;;;14.45;11.85;;;;;;;10.21;100.00;99798.81;5088727;28;20200;-75
2022/10/01 02:40:49;;;;;;;14.35;12.57;;;;;;;10.19;100.00;99798.03;5093014;28;20213;-74
2022/10/01 02:43:19;;;;;;;14.02;12.27;;;;;;;10.17;100.00;99791.84;5093051;28;20580;-75
2022/10/01 02:45:51;;;;;;;14.15;12.73;;;;;;;10.20;100.00;99778.25;5096839;28;20194;-73
2022/10/01 02:48:19;;;;;;;15.13;12.10;;;;;;;10.22;100.00;99780.84;5097689;28;20216;-75
2022/10/01 02:50:50;;;;;;;12.05;10.75;;;;;;;10.15;100.00;99771.34;5098653;28;20203;-74
2022/10/01 02:53:20;;;;;;;14.23;11.85;;;;;;;10.17;100.00;99772.16;5097907;28;20227;-74
2022/10/01 02:55:49;;;;;;;11.95;10.38;;;;;;;10.27;100.00;99768.03;5098157;28;20207;-73
2022/10/01 02:58:17;;;;;;;13.80;10.43;;;;;;;10.29;100.00;99762.56;5094927;28;20208;-73
2022/10/01 03:00:44;;;;;;;11.52;10.38;;;;;;;10.32;100.00;99754.34;5094903;28;20656;-74
2022/10/01 03:03:11;;;;;;;11.85;10.52;;;;;;;10.38;100.00;99754.88;5090886;28;20244;-74
2022/10/01 03:05:39;;;;;;;11.20;9.43;;;;;;;10.41;100.00;99759.22;5091251;28;20559;-74
2022/10/01 03:08:05;;;;;;;11.60;8.70;;;;;;;10.43;100.00;99746.56;5101581;28;20197;-74
2022/10/01 03:10:36;;;;;;;13.40;9.20;;;;;;;10.47;100.00;99744.53;5101780;28;20209;-75
2022/10/01 03:13:04;;;;;;;11.55;9.18;;;;;;;10.49;100.00;99757.00;5102500;28;20222;-74
2022/10/01 03:15:31;;;;;;;9.75;8.75;;;;;;;10.45;100.00;99741.97;5100576;28;20663;-75
2022/10/01 03:17:57;;;;;;;10.18;9.10;;;;;;;10.50;100.00;99739.00;5102413;28;20569;-73
2022/10/01 03:20:25;;;;;;;10.68;8.45;;;;;;;10.53;100.00;99733.44;5101558;28;20213;-75
2022/10/01 03:22:53;;;;;;;13.30;9.25;;;;;;;10.47;100.00;99726.59;5103516;28;20218;-75
2022/10/01 03:25:20;;;;;;;9.52;7.32;;;;;;;10.53;100.00;99733.44;5096936;28;20223;-74
2022/10/01 03:27:47;;;;;;;9.27;7.25;;;;;;;10.54;100.00;99725.28;5101781;28;20202;-73
2022/10/01 03:30:14;;;;;;;9.20;8.23;;;;;;;10.50;100.00;99730.94;5099903;28;20204;-73
2022/10/01 03:32:40;;;;;;;10.27;8.85;;;;;;;10.54;100.00;99725.28;5092305;28;20202;-75
2022/10/01 03:35:08;;;;;;;9.52;8.45;;;;;;;10.56;100.00;99723.38;5101168;28;20201;-74
2022/10/01 03:37:34;;;;;;;11.40;9.57;;;;;;;10.60;100.00;99735.69;5101572;28;20223;-74
2022/10/01 03:40:02;;;;;;;9.52;7.93;;;;;;;10.50;100.00;99718.34;5101791;28;20200;-72
2022/10/01 03:42:32;;;;;;;11.80;9.60;;;;;;;10.49;100.00;99726.47;5102089;28;20214;-74
2022/10/01 03:44:58;;;;;;;10.10;8.23;;;;;;;10.44;100.00;99729.44;5101277;28;20229;-73
2022/10/01 03:47:25;;;;;;;9.85;8.45;;;;;;;10.30;100.00;99737.41;5098666;28;20205;-75
2022/10/01 03:49:51;;;;;;;9.70;8.70;;;;;;;10.30;100.00;99737.41;5100951;28;20199;-74
2022/10/01 03:52:19;;;;;;;11.27;8.68;;;;;;;10.32;100.00;99747.13;5092615;28;20576;-74
2022/10/01 03:54:45;;;;;;;10.82;9.02;;;;;;;10.36;100.00;99747.84;5090746;28;20223;-73
2022/10/01 03:57:13;;;;;;;16.75;9.57;;;;;;;10.26;100.00;99739.34;5100932;28;20206;-73
2022/10/01 03:59:40;;;;;;;10.23;8.68;;;;;;;10.21;100.00;99731.53;5099848;28;20208;-74
2022/10/01 04:02:07;;;;;;;10.80;9.63;;;;;;;10.19;100.00;99736.13;5100815;28;20294;-75
2022/10/01 04:04:33;;;;;;;10.18;9.18;;;;;;;10.15;100.00;99744.44;5091794;28;20227;-75
2022/10/01 04:07:00;;;;;;;10.40;8.27;;;;;;;10.07;100.00;99747.56;5101711;28;20190;-75
2022/10/01 04:09:26;;;;;;;10.88;9.23;;;;;;;10.06;100.00;99745.81;5101048;28;20208;-73
2022/10/01 04:11:53;;;;;;;13.20;10.05;;;;;;;9.97;100.00;99743.63;5099961;28;20202;-74
2022/10/01 04:14:21;;;;;;;11.45;10.18;;;;;;;10.01;100.00;99737.97;5086511;28;20574;-72
2022/10/01 04:16:51;;;;;;;10.90;9.90;;;;;;;9.91;100.00;99752.03;5089795;28;20575;-74
2022/10/01 04:19:17;;;;;;;12.48;10.88;;;;;;;9.87;100.00;99745.06;5100785;28;20621;-74
2022/10/01 04:21:44;;;;;;;10.85;9.48;;;;;;;9.73;100.00;99741.28;5088803;28;20203;-74
2022/10/01 04:24:10;;;;;;;11.40;10.15;;;;;;;9.70;100.00;99736.06;5085539;28;20221;-74
2022/10/01 04:26:37;;;;;;;12.45;10.15;;;;;;;9.72;100.00;99734.19;5098197;28;20203;-74
2022/10/01 04:29:03;;;;;;;13.27;11.75;;;;;;;9.72;100.00;99727.91;5102191;28;20544;-73
2022/10/01 04:31:33;;;;;;;14.43;10.77;;;;;;;9.72;100.00;99720.75;5098133;28;20294;-74
2022/10/01 04:34:00;;;;;;;13.02;10.95;;;;;;;9.66;100.00;99715.69;5095661;28;20662;-74
2022/10/01 04:36:27;;;;;;;12.63;10.02;;;;;;;9.63;100.00;99705.06;5098868;28;20212;-73
2022/10/01 04:38:54;;;;;;;16.20;11.20;;;;;;;9.67;100.00;99703.97;5100603;28;20200;-72
2022/10/01 04:41:21;;;;;;;15.18;10.00;;;;;;;9.60;100.00;99695.34;5096709;28;20285;-73
2022/10/01 04:43:48;;;;;;;15.52;10.75;;;;;;;9.69;100.00;99691.31;5099910;28;20228;-75
2022/10/01 04:46:15;;;;;;;14.63;10.98;;;;;;;9.59;100.00;99690.06;5093653;28;20301;-75
2022/10/01 04:48:43;;;;;;;14.65;10.45;;;;;;;9.60;100.00;99675.66;5092012;28;20193;-73
2022/10/01 04:51:09;;;;;;;12.48;10.55;;;;;;;9.56;100.00;99680.31;5098480;28;20210;-76
2022/10/01 04:53:36;;;;;;;14.48;10.68;;;;;;;9.58;100.00;99674.88;5102184;28;20781;-72
2022/10/01 04:56:02;;;;;;;13.00;10.85;;;;;;;9.59;100.00;99671.25;5098662;28;20200;-75
2022/10/01 04:58:30;;;;;;;14.75;11.18;;;;;;;9.57;100.00;99668.63;5094159;28;20370;-73
2022/10/01 05:00:56;;;;;;;14.98;10.77;;;;;;;9.59;100.00;99665.88;5091689;28;20564;-73
2022/10/01 05:03:23;;;;;;;13.13;10.75;;;;;;;9.51;100.00;99660.88;5089232;28;20592;-72
2022/10/01 05:05:51;;;;;;;15.05;10.70;;;;;;;9.52;100.00;99646.50;5090560;28;20220;-73
2022/10/01 05:08:17;;;;;;;13.07;10.25;;;;;;;9.57;100.00;99648.94;5097152;28;20199;-75
2022/10/01 05:10:44;;;;;;;12.32;10.93;;;;;;;9.54;100.00;99646.41;5087452;28;20674;-74
2022/10/01 05:13:11;;;;;;;13.55;10.90;;;;;;;9.53;100.00;99636.63;5096894;28;20232;-73
2022/10/01 05:15:37;;;;;;;12.50;10.20;;;;;;;9.53;100.00;99634.78;5095158;28;20257;-73
2022/10/01 05:18:04;;;;;;;12.98;9.55;;;;;;;9.58;100.00;99631.84;5087727;28;20205;-74
2022/10/01 05:20:32;;;;;;;13.18;10.70;;;;;;;9.55;100.00;99626.66;5092253;28;20217;-73
2022/10/01 05:23:00;;;;;;;12.27;9.93;;;;;;;9.53;100.00;99633.94;5090251;28;20629;-76
2022/10/01 05:25:26;;;;;;;13.52;8.80;;;;;;;9.59;100.00;99639.84;5085495;28;20220;-74
2022/10/01 05:27:53;;;;;;;11.95;10.50;;;;;;;9.54;100.00;99627.59;5074398;28;20230;-75
2022/10/01 05:30:22;;;;;;;11.13;9.93;;;;;;;9.46;100.00;99625.31;5077494;28;20201;-73
2022/10/01 05:32:57;;;;;;;14.70;10.85;;;;;;;9.59;100.00;99630.94;5082377;28;20676;-76
2022/10/01 05:35:24;;;;;;;13.95;10.50;;;;;;;9.52;100.00;99619.63;5091293;28;20203;-76
2022/10/01 05:37:55;;;;;;;14.30;10.98;;;;;;;9.52;100.00;99621.44;5089296;28;20577;-73
2022/10/01 05:40:24;;;;;;;12.32;10.27;;;;;;;9.56;100.00;99623.00;5096447;28;20533;-73
2022/10/01 05:42:51;;;;;;;13.45;10.88;;;;;;;9.54;100.00;99636.56;5099610;28;20240;-73
2022/10/01 05:45:18;;;;;;;12.15;9.80;;;;;;;9.55;100.00;99632.91;5096600;28;20225;-73
2022/10/01 05:47:46;;;;;;;13.68;10.73;;;;;;;9.57;100.00;99619.38;5095783;28;20198;-76
2022/10/01 05:50:13;;;;;;;13.10;10.98;;;;;;;9.57;100.00;99620.25;5093454;28;20194;-74
2022/10/01 05:52:41;;;;;;;11.77;9.75;;;;;;;9.56;100.00;99623.00;5090764;28;20211;-74
2022/10/01 05:55:08;;;;;;;13.77;10.02;;;;;;;9.57;100.00;99624.75;5092491;28;20193;-75
2022/10/01 05:57:36;;;;;;;12.73;9.80;;;;;;;9.60;100.00;99624.59;5095339;28;20208;-74
2022/10/01 06:00:03;;;;;;;11.93;9.35;;;;;;;9.58;100.00;99635.41;5082950;28;20200;-74
2022/10/01 06:02:29;;;;;;;11.68;8.57;;;;;;;9.67;100.00;99626.00;5093512;28;20564;-74
2022/10/01 06:04:56;;;;;;;11.75;8.75;;;;;;;9.67;100.00;99620.59;5092803;28;20524;-73
2022/10/01 06:07:22;;;;;;;9.23;8.07;;;;;;;9.65;100.00;99617.13;5090348;28;20228;-73
2022/10/01 06:09:49;;;;;;;10.80;8.77;;;;;;;9.65;100.00;99613.59;5087169;28;20205;-73
2022/10/01 06:12:15;;;;;;;10.77;9.23;;;;;;;9.67;100.00;99599.09;5092775;28;20570;-74
2022/10/01 06:14:43;;;;;;;10.40;8.98;;;;;;;9.67;100.00;99593.72;5093481;28;20273;-74
2022/10/01 06:17:10;;;;;;;13.45;9.32;;;;;;;9.66;100.00;99600.06;5090494;28;20545;-74
2022/10/01 06:19:36;;;;;;;11.18;9.38;;;;;;;9.67;100.00;99609.84;5090719;28;20202;-75
2022/10/01 06:22:03;;;;;;;12.60;9.23;;;;;;;9.67;100.00;99603.63;5085246;28;20223;-77
2022/10/01 06:24:30;;;;;;;15.15;10.65;;;;;;;9.69;100.00;99599.88;5083079;28;20225;-75
2022/10/01 06:26:57;;;;;;;11.70;8.48;;;;;;;9.65;100.00;99601.00;5089737;28;20196;-74
2022/10/01 06:29:23;;;;;;;11.77;10.40;;;;;;;9.67;100.00;99582.09;5091646;28;20226;-77
2022/10/01 06:31:51;;;;;;;13.85;9.63;;;;;;;9.69;100.00;99578.38;5093208;28;20221;-74
2022/10/01 06:34:18;;;;;;;11.40;8.93;;;;;;;9.69;100.00;99566.75;5092784;28;20222;-73
2022/10/01 06:36:44;;;;;;;12.75;9.20;;;;;;;9.67;100.00;99566.84;5086490;28;20204;-75
2022/10/01 06:39:11;;;;;;;12.77;9.90;;;;;;;9.73;100.00;99555.75;5086147;28;20245;-74
2022/10/01 06:41:37;;;;;;;11.55;7.78;;;;;;;9.70;100.00;99564.00;5091650;28;20226;-74
2022/10/01 06:44:04;;;;;;;10.38;8.68;;;;;;;9.71;100.00;99563.03;5067555;28;20232;-75
2022/10/01 06:46:31;;;;;;;12.07;9.43;;;;;;;9.68;100.00;99562.31;5079534;28;20201;-74
2022/10/01 06:48:59;;;;;;;10.05;7.88;;;;;;;9.74;100.00;99572.75;5085363;28;20230;-74
2022/10/01 06:54:06;;;;;;;13.57;8.50;;;;;;;9.79;100.00;99590.38;5090594;28;20283;-74
2022/10/01 06:56:32;;;;;;;12.20;9.18;;;;;;;9.76;100.00;99587.84;5085478;28;20212;-74
2022/10/01 06:58:59;;;;;;;13.07;8.15;;;;;;;9.78;100.00;99582.38;5097824;28;20205;-77
2022/10/01 07:01:26;;;;;;;12.13;9.63;;;;;;;9.74;100.00;99578.13;5095008;28;20211;-76
2022/10/01 07:03:53;;;;;;;10.90;7.88;;;;;;;9.75;100.00;99577.19;5093137;28;20227;-74
2022/10/01 07:06:20;;;;;;;11.43;9.73;;;;;;;9.75;100.00;99553.84;5091302;28;20247;-74
2022/10/01 07:08:49;;;;;;;10.68;8.55;;;;;;;9.78;100.00;99534.84;5089953;28;20668;-76
2022/10/01 07:11:15;;;;;;;13.55;9.27;;;;;;;9.77;100.00;99518.81;5090657;28;20203;-74
2022/10/01 07:13:42;;;;;;;11.57;9.02;;;;;;;9.85;100.00;99513.00;5088629;28;20757;-75
2022/10/01 07:16:08;;;;;;;9.20;6.32;;;;;;;9.81;100.00;99523.94;5083623;28;20201;-75
2022/10/01 07:18:35;;;;;;;14.95;9.10;;;;;;;9.77;100.00;99506.25;5087821;28;20221;-73
2022/10/01 07:21:02;;;;;;;13.55;9.05;;;;;;;9.79;100.00;99498.97;5087434;28;20215;-74
2022/10/01 07:23:30;;;;;;;13.02;8.68;;;;;;;9.80;100.00;99500.69;5091407;28;20736;-75
2022/10/01 07:25:57;;;;;;;12.93;8.35;;;;;;;9.78;100.00;99497.19;5079269;28;20233;-74
2022/10/01 07:28:25;;;;;;;10.63;8.98;;;;;;;9.78;100.00;99481.06;5091535;28;20260;-75
2022/10/01 07:30:59;;;;;;;13.25;9.45;;;;;;;9.82;100.00;99473.72;5088925;28;20251;-75
2022/10/01 07:33:25;;;;;;;9.82;8.23;;;;;;;9.83;100.00;99513.06;5074330;28;20213;-73
2022/10/01 07:35:52;;;;;;;11.30;9.40;;;;;;;9.86;100.00;99523.69;5076512;28;20198;-74
2022/10/01 07:38:19;;;;;;;8.77;7.55;;;;;;;9.86;100.00;99523.69;5091029;28;20268;-75
2022/10/01 07:40:51;;;;;;;9.65;8.48;;;;;;;9.87;100.00;99529.91;5095545;28;20590;-74
2022/10/01 07:43:18;;;;;;;10.10;8.63;;;;;;;9.93;100.00;99516.13;5097596;28;20542;-74
2022/10/01 07:45:45;;;;;;;10.55;9.15;;;;;;;9.93;100.00;99517.00;5094156;28;20270;-74
2022/10/01 07:48:13;;;;;;;12.45;9.13;;;;;;;9.94;100.00;99515.16;5093029;28;20268;-73
2022/10/01 07:50:42;;;;;;;13.27;9.13;;;;;;;9.93;100.00;99517.00;5093398;28;20202;-73
2022/10/01 07:53:09;;;;;;;12.02;9.05;;;;;;;9.92;100.00;99527.81;5098134;28;20224;-75
2022/10/01 07:55:35;;;;;;;10.23;8.88;;;;;;;9.91;100.00;99521.59;5094997;28;20257;-75
2022/10/01 07:58:04;;;;;;;11.38;8.73;;;;;;;9.94;100.00;99552.81;5095599;28;20198;-75
2022/10/01 08:00:32;;;;;;;11.50;9.32;;;;;;;9.94;100.00;99552.81;5076549;28;20202;-76
2022/10/01 08:02:59;;;;;;;9.90;8.90;;;;;;;9.92;100.00;99554.72;5084533;28;20225;-73
2022/10/01 08:05:28;;;;;;;10.68;9.52;;;;;;;9.90;100.00;99530.59;5092545;28;20238;-73
2022/10/01 08:07:58;;;;;;;9.50;7.35;;;;;;;9.97;100.00;99523.03;5094378;28;20219;-76
2022/10/01 08:10:25;;;;;;;10.20;7.03;;;;;;;9.97;100.00;99536.50;5087959;28;20191;-72
2022/10/01 08:12:51;;;;;;;11.45;7.28;;;;;;;9.95;100.00;99535.72;5090794;28;20229;-72
2022/10/01 08:15:19;;;;;;;13.45;9.38;;;;;;;9.92;100.00;99523.31;5092864;28;20215;-72
2022/10/01 08:17:46;;;;;;;10.25;7.43;;;;;;;9.97;100.00;99549.94;5097351;28;20203;-73
2022/10/01 08:20:13;;;;;;;9.45;8.45;;;;;;;9.99;100.00;99559.69;5103349;28;20211;-73
2022/10/01 08:22:40;;;;;;;10.45;8.65;;;;;;;10.02;100.00;99555.97;5093445;28;20205;-73
2022/10/01 08:25:08;;;;;;;9.52;8.13;;;;;;;9.97;100.00;99550.84;5101386;28;20229;-73
2022/10/01 08:27:34;;;;;;;9.75;8.40;;;;;;;10.02;100.00;99546.06;5094445;28;20679;-73
2022/10/01 08:30:01;;;;;;;10.38;7.93;;;;;;;10.06;100.00;99546.72;5094754;28;20206;-72
2022/10/01 08:32:30;;;;;;;9.05;7.50;;;;;;;10.04;100.00;99543.28;5096022;28;20292;-72
2022/10/01 08:34:57;;;;;;;9.35;8.35;;;;;;;10.06;100.00;99511.75;5096456;28;20218;-73
2022/10/01 08:37:25;;;;;;;9.93;7.82;;;;;;;10.08;100.00;99528.69;5093734;28;20212;-73
2022/10/01 08:39:52;;;;;;;10.25;8.88;;;;;;;10.08;100.00;99517.91;5077405;28;20202;-73
2022/10/01 08:42:36;;;;;;;7.60;6.75;;;;;;;10.17;100.00;99525.47;5095761;28;20587;-74
2022/10/01 08:45:10;;;;;;;7.78;6.68;;;;;;;10.19;100.00;99573.81;5094588;28;20209;-74
2022/10/01 08:47:41;;;;;;;9.73;8.18;;;;;;;10.20;100.00;99589.88;5093195;28;20196;-73
2022/10/01 08:50:18;;;;;;;9.50;8.63;;;;;;;10.23;100.00;99599.59;5087919;28;20578;-75
2022/10/01 08:52:50;;;;;;;11.65;8.02;;;;;;;10.22;100.00;99600.53;5086832;28;20292;-72
2022/10/01 08:55:22;;;;;;;9.73;8.73;;;;;;;10.24;100.00;99598.63;5086608;28;20191;-74
2022/10/01 08:57:52;;;;;;;12.45;8.60;;;;;;;10.26;100.00;99590.47;5093411;28;20204;-72
2022/10/01 09:00:19;;;;;;;11.65;9.57;;;;;;;10.27;100.00;99616.47;5094413;28;20194;-72
2022/10/01 09:02:49;;;;;;;10.82;9.40;;;;;;;10.28;100.00;99594.81;5093110;28;20214;-72
2022/10/01 09:05:23;;;;;;;13.10;9.55;;;;;;;10.32;100.00;99598.25;5085900;28;20215;-75
2022/10/01 09:08:03;;;;;;;9.82;8.82;;;;;;;10.35;100.00;99617.75;5084693;28;20212;-73
2022/10/01 09:10:42;;;;;;;9.52;8.52;;;;;;;10.33;100.00;99608.03;5084625;28;20194;-73
2022/10/01 09:13:48;;;;;;;11.00;8.63;;;;;;;10.36;100.00;99594.44;5094417;28;20225;-75
2022/10/01 09:16:23;;;;;;;8.38;7.45;;;;;;;10.33;100.00;99597.28;5091027;28;20190;-71
2022/10/01 09:19:06;;;;;;;10.27;9.18;;;;;;;10.35;100.00;99598.06;5092444;28;20687;-72
2022/10/01 09:21:47;;;;;;;10.75;8.50;;;;;;;10.32;100.00;99592.88;5092922;28;20199;-73
2022/10/01 09:24:15;;;;;;;10.70;7.85;;;;;;;10.39;100.00;99597.81;5079173;28;20229;-73
2022/10/01 09:26:44;;;;;;;9.35;7.85;;;;;;;10.44;100.00;99606.47;5088942;28;20291;-72
2022/10/01 09:29:17;;;;;;;10.73;7.75;;;;;;;10.48;100.00;99591.03;5082826;28;20580;-72
2022/10/01 09:31:47;;;;;;;11.40;6.70;;;;;;;10.49;100.00;99592.78;5073277;28;20182;-72
2022/10/01 09:34:19;;;;;;;9.10;7.30;;;;;;;10.45;100.00;99596.59;5077349;28;20231;-75
2022/10/01 09:37:04;;;;;;;7.35;6.45;;;;;;;10.47;100.00;99604.56;5090015;28;20202;-74
2022/10/01 09:39:37;;;;;;;7.22;6.53;;;;;;;10.47;100.00;99604.56;5088332;28;20206;-73
2022/10/01 09:42:05;;;;;;;9.55;7.78;;;;;;;10.48;100.00;99604.47;5094604;28;20221;-73
2022/10/01 09:44:33;;;;;;;7.50;6.63;;;;;;;10.48;100.00;99599.09;5089021;28;20735;-74
2022/10/01 09:47:00;;;;;;;8.32;7.43;;;;;;;10.48;100.00;99601.78;5086258;28;20217;-73
2022/10/01 09:49:32;;;;;;;8.45;7.30;;;;;;;10.48;100.00;99596.41;5085570;28;20291;-73
2022/10/01 09:52:03;;;;;;;8.95;7.47;;;;;;;10.51;100.00;99596.22;5093135;28;20220;-72
2022/10/01 09:54:35;;;;;;;8.85;7.95;;;;;;;10.51;100.00;99603.44;5087922;28;20226;-73
2022/10/01 09:57:09;;;;;;;9.82;8.18;;;;;;;10.54;100.00;99590.69;5097672;28;20208;-74
2022/10/01 09:59:43;;;;;;;7.97;6.68;;;;;;;10.59;100.00;99604.72;5099430;28;20198;-73
2022/10/01 10:02:19;;;;;;;5.80;5.20;;;;;;;10.58;100.00;99594.03;5097480;28;20256;-71
2022/10/01 10:04:47;;;;;;;7.88;6.85;;;;;;;10.61;100.00;99605.50;5092748;28;20633;-73
2022/10/01 10:07:18;;;;;;;7.50;6.75;;;;;;;10.64;100.00;99608.00;5091070;28;20230;-72
2022/10/01 10:09:45;;;;;;;9.52;6.10;;;;;;;10.64;100.00;99612.53;5059023;28;20185;-73
2022/10/01 10:12:27;;;;;;;7.80;6.00;;;;;;;10.64;100.00;99605.31;5094355;28;20272;-73
2022/10/01 10:14:55;;;;;;;6.70;5.93;;;;;;;10.60;100.00;99617.22;5097995;28;20225;-73
2022/10/01 10:17:24;;;;;;;6.28;5.68;;;;;;;10.65;100.00;99616.97;5088924;28;20201;-74
2022/10/01 10:19:52;;;;;;;6.00;5.40;;;;;;;10.69;100.00;99613.13;5079363;28;20231;-74
2022/10/01 10:22:25;;;;;;;7.95;5.70;;;;;;;10.72;100.00;99612.97;5075690;28;20206;-73
2022/10/01 10:24:53;;;;;;;6.88;5.70;;;;;;;10.75;100.00;99614.59;5092528;28;20292;-73
2022/10/01 10:27:25;;;;;;;6.43;5.82;;;;;;;10.85;100.00;99618.47;5092054;28;20229;-76
2022/10/01 10:30:02;;;;;;;7.75;6.57;;;;;;;10.80;100.00;99628.66;5084373;28;20208;-72
2022/10/01 10:32:29;;;;;;;5.95;5.45;;;;;;;10.78;100.00;99631.44;5088235;28;21595;-73
2022/10/01 10:35:03;;;;;;;6.50;5.72;;;;;;;10.77;100.00;99628.84;5080218;28;20598;-74
2022/10/01 10:37:34;;;;;;;8.07;6.65;;;;;;;10.80;100.00;99628.66;5089642;28;20206;-72
2022/10/01 10:40:01;;;;;;;5.72;5.20;;;;;;;10.83;100.00;99617.69;5081564;28;20243;-74
2022/10/01 10:42:28;;;;;;;6.95;5.80;;;;;;;10.88;100.00;99626.41;5095477;28;20618;-76
2022/10/01 10:44:57;;;;;;;5.68;5.13;;;;;;;10.91;100.00;99625.34;5087677;28;20246;-76
2022/10/01 10:47:27;;;;;;;6.70;5.53;;;;;;;10.93;100.00;99613.53;5072409;28;20232;-74
2022/10/01 10:49:56;;;;;;;5.90;5.30;;;;;;;10.96;100.00;99610.63;5085147;28;20202;-74
2022/10/01 10:52:31;;;;;;;5.35;4.72;;;;;;;10.95;100.00;99613.44;5091576;28;20196;-74
2022/10/01 10:54:58;;;;;;;5.28;4.78;;;;;;;11.02;100.00;99612.97;5089835;28;20206;-74
2022/10/01 10:57:27;;;;;;;6.03;4.38;;;;;;;11.02;100.00;99610.28;5083321;28;20202;-73
2022/10/01 10:59:56;;;;;;;5.40;4.82;;;;;;;11.05;100.00;99617.31;5086806;28;20193;-75
2022/10/01 11:02:24;;;;;;;7.85;5.47;;;;;;;11.06;100.00;99609.13;5086278;28;20199;-73
2022/10/01 11:04:52;;;;;;;6.07;5.10;;;;;;;11.13;100.00;99616.88;5085013;28;20624;-76
2022/10/01 11:07:21;;;;;;;5.45;4.90;;;;;;;11.34;100.00;99618.25;5084717;28;20230;-74
2022/10/01 11:10:10;;;;;;;5.15;4.65;;;;;;;11.45;100.00;99614.91;5077532;28;20265;-73
2022/10/01 11:12:55;;;;;;;5.60;5.10;;;;;;;11.49;100.00;99624.53;5010603;28;20202;-75
2022/10/01 11:15:36;;;;;;;5.63;4.85;;;;;;;11.48;100.00;99629.03;5011242;28;20294;-73
2022/10/01 11:18:28;;;;;;;5.95;4.30;;;;;;;11.45;100.00;99626.53;4993041;28;20197;-75
2022/10/01 11:21:10;;;;;;;5.05;4.55;;;;;;;11.48;100.00;99634.44;5008979;28;20207;-74
2022/10/01 11:24:10;;;;;;;7.22;4.47;;;;;;;11.85;100.00;99640.25;5005543;28;20305;-75
2022/10/01 11:26:47;;;;;;;5.68;4.82;;;;;;;11.61;100.00;99645.34;5017848;28;20217;-74
2022/10/01 11:29:24;;;;;;;5.57;4.70;;;;;;;11.84;100.00;99646.59;5021517;28;20201;-75
2022/10/01 11:32:02;;;;;;;7.43;5.97;;;;;;;11.67;100.00;99646.81;5011479;28;20682;-74
2022/10/01 11:34:47;;;;;;;5.00;4.50;;;;;;;11.69;100.00;99655.69;4998676;28;20213;-73
2022/10/01 11:37:30;;;;;;;4.35;3.95;;;;;;;11.67;100.00;99661.16;5016435;28;20207;-74